Terminal Aerodrome Forecast
Issued by NWS

Home | Current Version | Previous Version | Graphics & Text | Print | Product List | Glossary On
Versions: 1 2 3 4 5 6 7 8 9 10 11 12 13 14 15 16 17 18 19 20 21 22 23 24 25 26 27 28 29 30 31 32 33 34 35 36 37 38 39 40
795
FTUS43 KGRB 250520
TAFATW
TAF
KATW 250520Z 2506/2606 27005G15KT P6SM VCTS BKN060CB
      TEMPO 2506/2507 5SM -SHRA BKN040
     FM250700 28005KT P6SM VCSH BKN070
     FM251800 29009KT P6SM VCSH BKN040
     FM260000 28008KT P6SM VCSH BKN030=

USA.gov is the U.S. government's official web portal to all federal, state and local government web resources and services.